Time;durP1;ratioP1;P1;durP2;ratioP2;P2;SDS_P1;SDS_P2;PMS_P1;PMS_P2;Temp;Humidity;BMP_temperature;BMP_pressure;BME280_temperature;BME280_humidity;BME280_pressure;Samples;Min_cycle;Max_cycle;Signal;HPM_P1;HPM_P2
2022/07/24 00:01:46;;;;;;;7.10;6.38;;;15.60;99.90;;;;;;4841249;28;93290;-32
2022/07/24 00:04:12;;;;;;;6.95;6.32;;;15.60;99.90;;;;;;4841387;29;94477;-32
2022/07/24 00:06:37;;;;;;;6.68;6.07;;;15.60;99.90;;;;;;4841136;29;94411;-31
2022/07/24 00:09:04;;;;;;;6.43;5.60;;;15.60;99.90;;;;;;4841487;28;93525;-34
2022/07/24 00:11:30;;;;;;;6.43;5.82;;;15.50;99.90;;;;;;4893825;23;92271;-30
2022/07/24 00:13:56;;;;;;;6.72;6.22;;;15.50;99.90;;;;;;4938055;28;95174;-30
2022/07/24 00:16:21;;;;;;;6.95;6.28;;;15.50;99.90;;;;;;4936543;28;93823;-31
2022/07/24 00:18:47;;;;;;;7.55;6.82;;;15.50;99.90;;;;;;4934189;28;93010;-31
2022/07/24 00:21:12;;;;;;;6.75;6.10;;;15.60;99.90;;;;;;4932300;28;95340;-30
2022/07/24 00:23:38;;;;;;;8.45;6.57;;;15.50;99.90;;;;;;4937215;28;94522;-32
2022/07/24 00:26:04;;;;;;;13.75;6.68;;;15.50;99.90;;;;;;4936896;28;94108;-30
2022/07/24 00:28:29;;;;;;;8.07;6.72;;;15.50;99.90;;;;;;4937167;28;94632;-32
2022/07/24 00:30:56;;;;;;;7.95;7.15;;;15.50;99.90;;;;;;4937414;28;92610;-31
2022/07/24 00:33:21;;;;;;;7.13;6.43;;;15.50;99.90;;;;;;4935997;28;96202;-32
2022/07/24 00:35:47;;;;;;;8.07;6.57;;;15.50;99.90;;;;;;4937425;28;94367;-31
2022/07/24 00:38:13;;;;;;;6.88;6.32;;;15.50;99.90;;;;;;4937762;28;92331;-30
2022/07/24 00:40:40;;;;;;;7.38;6.63;;;15.40;99.90;;;;;;4936297;28;92166;-29
2022/07/24 00:43:05;;;;;;;7.20;6.32;;;15.40;99.90;;;;;;4936085;28;94923;-33
2022/07/24 00:45:31;;;;;;;8.45;7.18;;;15.40;99.90;;;;;;4937614;28;95406;-31
2022/07/24 00:47:56;;;;;;;7.00;6.40;;;15.40;99.90;;;;;;4940482;28;93037;-32
2022/07/24 00:50:22;;;;;;;6.13;5.57;;;15.40;99.90;;;;;;4940196;28;94351;-31
2022/07/24 00:52:49;;;;;;;7.55;6.78;;;15.40;99.90;;;;;;4939491;28;94819;-31
2022/07/24 00:55:15;;;;;;;6.65;6.15;;;15.40;99.90;;;;;;4939679;28;94335;-31
2022/07/24 00:57:43;;;;;;;7.47;6.68;;;15.30;99.90;;;;;;4939928;28;93410;-31
2022/07/24 01:00:09;;;;;;;;;;;15.40;99.90;;;;;;4940005;28;94476;-33
2022/07/24 01:02:38;;;;;;;8.32;7.50;;;15.30;99.90;;;;;;4942062;28;95215;-32
2022/07/24 01:05:04;;;;;;;8.20;6.65;;;15.20;99.90;;;;;;4939628;28;94197;-33
2022/07/24 01:07:30;;;;;;;12.77;7.55;;;15.20;99.90;;;;;;4939966;28;94430;-31
2022/07/24 01:09:55;;;;;;;8.80;6.90;;;15.20;99.90;;;;;;4939613;28;95336;-34
2022/07/24 01:12:21;;;;;;;11.48;7.15;;;15.20;99.90;;;;;;4939176;28;94307;-34
2022/07/24 01:14:47;;;;;;;8.65;6.88;;;15.20;99.90;;;;;;4940018;28;94802;-32
2022/07/24 01:17:13;;;;;;;7.63;6.95;;;15.20;99.90;;;;;;4939497;28;93421;-32
2022/07/24 01:19:38;;;;;;;7.47;6.88;;;15.20;99.90;;;;;;4939616;28;92502;-33
2022/07/24 01:22:04;;;;;;;7.65;6.85;;;15.20;99.90;;;;;;4939579;28;95116;-33
2022/07/24 01:24:30;;;;;;;6.72;6.13;;;15.10;99.90;;;;;;4939594;28;95102;-31
2022/07/24 01:26:55;;;;;;;6.95;6.35;;;15.10;99.90;;;;;;4940790;28;92779;-31
2022/07/24 01:29:21;;;;;;;8.95;7.05;;;15.10;99.90;;;;;;4939671;28;93461;-34
2022/07/24 01:31:47;;;;;;;9.18;6.78;;;15.10;99.90;;;;;;4939026;28;94849;-33
2022/07/24 01:34:13;;;;;;;8.30;7.57;;;15.00;99.90;;;;;;4939045;28;94303;-30
2022/07/24 01:36:39;;;;;;;7.40;6.70;;;15.00;99.90;;;;;;4939794;28;94440;-30
2022/07/24 01:39:04;;;;;;;7.18;6.47;;;15.00;99.90;;;;;;4939209;28;93553;-33
2022/07/24 01:41:30;;;;;;;8.27;7.53;;;15.00;99.90;;;;;;4939671;28;94152;-31
2022/07/24 01:43:56;;;;;;;5.90;5.50;;;15.00;99.90;;;;;;4938818;28;94552;-32
2022/07/24 01:46:21;;;;;;;7.38;6.68;;;15.00;99.90;;;;;;4939798;28;94287;-35
2022/07/24 01:48:47;;;;;;;8.57;5.95;;;15.00;99.90;;;;;;4939139;28;93204;-34
2022/07/24 01:51:12;;;;;;;6.18;5.68;;;14.90;99.90;;;;;;4939279;28;94027;-32
2022/07/24 01:53:38;;;;;;;6.20;5.57;;;14.90;99.90;;;;;;4938975;28;95022;-33
2022/07/24 01:56:04;;;;;;;7.13;6.53;;;14.90;99.90;;;;;;4938840;28;93099;-34
2022/07/24 01:58:29;;;;;;;6.70;5.97;;;14.90;99.90;;;;;;4938487;28;93857;-34
2022/07/24 02:00:55;;;;;;;8.43;7.60;;;14.90;99.90;;;;;;4939139;28;95061;-32
2022/07/24 02:03:21;;;;;;;9.25;6.97;;;14.80;99.90;;;;;;4939005;28;93780;-34
2022/07/24 02:05:47;;;;;;;8.73;6.63;;;14.80;99.90;;;;;;4939828;28;93693;-32
2022/07/24 02:08:13;;;;;;;6.82;6.28;;;14.80;99.90;;;;;;4938935;28;94451;-34
2022/07/24 02:10:39;;;;;;;7.25;6.65;;;14.80;99.90;;;;;;4938888;28;95378;-32
2022/07/24 02:13:06;;;;;;;9.55;6.30;;;14.80;99.90;;;;;;4937723;28;94399;-33
2022/07/24 02:15:31;;;;;;;8.25;7.30;;;14.70;99.90;;;;;;4939371;28;92961;-30
2022/07/24 02:17:59;;;;;;;6.60;5.18;;;14.80;99.90;;;;;;4939702;28;92140;-31
2022/07/24 02:20:26;;;;;;;7.35;6.22;;;14.80;99.90;;;;;;4937966;28;94939;-33
2022/07/24 02:22:52;;;;;;;8.20;7.43;;;14.80;99.90;;;;;;4920285;28;96075;-31
2022/07/24 02:25:18;;;;;;;7.10;5.82;;;14.80;99.90;;;;;;4938575;28;93508;-33
2022/07/24 02:27:44;;;;;;;7.63;6.82;;;14.80;99.90;;;;;;4935068;28;94659;-32
2022/07/24 02:30:12;;;;;;;12.98;6.57;;;14.80;99.90;;;;;;4929016;28;94866;-32
2022/07/24 02:32:38;;;;;;;7.50;6.22;;;14.90;99.90;;;;;;4938509;28;94455;-35
2022/07/24 02:35:05;;;;;;;7.72;6.60;;;14.90;99.90;;;;;;4938306;28;94260;-32
2022/07/24 02:37:31;;;;;;;8.02;6.72;;;14.90;99.90;;;;;;4938475;28;94050;-33
2022/07/24 02:39:57;;;;;;;7.40;6.70;;;15.00;99.90;;;;;;4939272;28;94059;-34
2022/07/24 02:42:23;;;;;;;6.68;5.97;;;15.00;99.90;;;;;;4937813;28;94020;-31
2022/07/24 02:44:48;;;;;;;6.65;6.05;;;15.00;99.90;;;;;;4938955;28;94131;-31
2022/07/24 02:47:14;;;;;;;8.05;6.93;;;15.00;99.90;;;;;;4937852;28;94987;-33
2022/07/24 02:49:39;;;;;;;7.47;6.70;;;15.00;99.90;;;;;;4938063;28;94675;-30
2022/07/24 02:52:05;;;;;;;6.95;6.25;;;15.00;99.90;;;;;;4938444;28;94220;-30
2022/07/24 02:54:31;;;;;;;7.68;6.03;;;15.00;99.90;;;;;;4938856;28;92080;-35
2022/07/24 02:56:56;;;;;;;6.88;6.20;;;15.00;99.90;;;;;;4938562;28;94719;-31
2022/07/24 02:59:22;;;;;;;6.03;5.43;;;15.00;99.90;;;;;;4937689;28;95270;-31
2022/07/24 03:01:48;;;;;;;7.80;7.05;;;15.10;99.90;;;;;;4938382;28;94584;-35
2022/07/24 03:04:13;;;;;;;7.80;7.10;;;15.00;99.90;;;;;;4939501;28;93441;-32
2022/07/24 03:06:39;;;;;;;6.32;5.72;;;15.10;99.90;;;;;;4938610;28;94340;-35
2022/07/24 03:09:05;;;;;;;8.88;6.03;;;15.10;99.90;;;;;;4938092;28;94644;-32
2022/07/24 03:11:30;;;;;;;6.90;6.30;;;15.10;99.90;;;;;;4937075;28;94560;-31
2022/07/24 03:13:56;;;;;;;6.50;5.93;;;15.10;99.90;;;;;;4938846;28;94219;-35
2022/07/24 03:16:21;;;;;;;6.50;5.90;;;15.10;99.90;;;;;;4937676;28;92983;-34
2022/07/24 03:18:48;;;;;;;7.43;6.70;;;15.10;99.90;;;;;;4938279;28;95095;-35
2022/07/24 03:21:15;;;;;;;6.68;6.07;;;15.10;99.90;;;;;;4937983;28;94286;-35
2022/07/24 03:23:41;;;;;;;6.00;5.32;;;15.10;99.90;;;;;;4937840;28;93326;-31
2022/07/24 03:26:06;;;;;;;7.18;6.57;;;15.10;99.90;;;;;;4938234;28;93336;-35
2022/07/24 03:28:32;;;;;;;11.70;6.30;;;15.10;99.90;;;;;;4928492;28;94376;-32
2022/07/24 03:31:00;;;;;;;6.63;6.00;;;15.10;99.90;;;;;;4934300;28;94743;-32
2022/07/24 03:33:26;;;;;;;5.72;5.32;;;15.10;99.90;;;;;;4938238;28;93467;-34
2022/07/24 03:35:51;;;;;;;9.45;6.70;;;15.10;99.90;;;;;;4936890;28;95869;-30
2022/07/24 03:38:17;;;;;;;6.07;5.60;;;15.10;99.90;;;;;;4937685;28;93593;-33
2022/07/24 03:40:42;;;;;;;6.95;6.28;;;15.10;99.90;;;;;;4937805;28;94478;-30
2022/07/24 03:43:08;;;;;;;7.43;6.28;;;15.10;99.90;;;;;;4937509;28;92114;-31
2022/07/24 03:45:34;;;;;;;7.22;5.40;;;15.20;99.90;;;;;;4937876;28;93659;-32
2022/07/24 03:47:59;;;;;;;12.75;6.72;;;15.20;99.90;;;;;;4937260;28;95046;-31
2022/07/24 03:50:25;;;;;;;6.35;5.82;;;15.20;99.90;;;;;;4937529;28;94615;-31
2022/07/24 03:52:50;;;;;;;8.63;6.28;;;15.20;99.90;;;;;;4939142;28;91954;-31
2022/07/24 03:55:16;;;;;;;7.38;6.78;;;15.20;99.90;;;;;;4937457;28;93378;-32
2022/07/24 03:57:42;;;;;;;7.78;6.97;;;15.30;99.90;;;;;;4937938;28;94180;-31
2022/07/24 04:00:09;;;;;;;7.13;6.45;;;15.30;99.90;;;;;;4936274;28;94611;-30
2022/07/24 04:02:34;;;;;;;6.90;6.28;;;15.30;99.90;;;;;;4937938;28;93387;-35
2022/07/24 04:05:00;;;;;;;6.18;5.60;;;15.40;99.90;;;;;;4937508;28;94370;-33
2022/07/24 04:07:26;;;;;;;7.30;6.68;;;15.50;99.90;;;;;;4936799;28;94837;-32
2022/07/24 04:09:51;;;;;;;7.43;6.75;;;15.50;99.90;;;;;;4937290;28;94574;-29
2022/07/24 04:12:17;;;;;;;7.70;6.90;;;15.50;99.90;;;;;;4936772;28;93563;-30
2022/07/24 04:14:42;;;;;;;9.30;6.78;;;15.50;99.90;;;;;;4937355;28;93837;-35
2022/07/24 04:17:08;;;;;;;7.65;6.93;;;15.50;99.90;;;;;;4919425;28;93671;-30
2022/07/24 04:19:34;;;;;;;6.93;6.25;;;15.60;99.90;;;;;;4937457;28;93583;-32
2022/07/24 04:22:00;;;;;;;7.13;6.53;;;15.60;99.90;;;;;;4943717;28;94113;-32
2022/07/24 04:24:25;;;;;;;8.23;7.45;;;15.60;99.90;;;;;;4942493;28;94682;-34
2022/07/24 04:26:51;;;;;;;9.32;6.82;;;15.70;99.90;;;;;;4943330;28;94737;-34
2022/07/24 04:29:17;;;;;;;7.43;6.82;;;15.70;99.90;;;;;;4929557;28;94537;-33
2022/07/24 04:31:42;;;;;;;6.78;6.07;;;15.70;99.90;;;;;;4944824;28;93183;-32
2022/07/24 04:34:08;;;;;;;6.47;5.88;;;15.70;99.90;;;;;;4943047;28;92614;-31
2022/07/24 04:36:33;;;;;;;6.32;5.82;;;15.80;99.90;;;;;;4942860;28;95090;-33
2022/07/24 04:38:59;;;;;;;6.90;6.30;;;15.80;99.90;;;;;;4944038;28;94527;-32
2022/07/24 04:41:25;;;;;;;6.90;5.28;;;15.80;99.90;;;;;;4943631;28;92976;-31
2022/07/24 04:43:50;;;;;;;6.28;5.78;;;15.80;99.90;;;;;;4943705;28;92166;-32
2022/07/24 04:46:17;;;;;;;7.60;6.38;;;15.80;99.90;;;;;;4942587;28;94631;-32
2022/07/24 04:48:43;;;;;;;7.00;6.38;;;15.80;99.90;;;;;;4942427;28;95557;-34
2022/07/24 04:51:08;;;;;;;7.10;6.40;;;15.80;99.90;;;;;;4943541;28;93876;-31
2022/07/24 04:53:34;;;;;;;6.95;5.97;;;15.80;99.90;;;;;;4943029;28;92832;-32
2022/07/24 04:55:59;;;;;;;7.72;6.30;;;15.80;99.90;;;;;;4943466;28;94237;-34
2022/07/24 04:58:26;;;;;;;6.80;6.25;;;15.80;99.90;;;;;;4942394;28;95206;-33
2022/07/24 05:00:52;;;;;;;6.97;6.28;;;15.80;99.90;;;;;;4943472;28;94359;-32
2022/07/24 05:03:18;;;;;;;6.63;6.03;;;15.80;99.90;;;;;;4942454;28;92171;-32
2022/07/24 05:05:44;;;;;;;7.05;6.45;;;15.90;99.90;;;;;;4942846;28;94280;-31
2022/07/24 05:08:09;;;;;;;7.32;6.63;;;16.00;99.90;;;;;;4943175;28;93451;-31
2022/07/24 05:10:35;;;;;;;7.05;6.45;;;16.10;99.90;;;;;;4943322;28;93231;-31
2022/07/24 05:13:00;;;;;;;7.95;6.50;;;16.30;99.90;;;;;;4942636;28;95464;-32
2022/07/24 05:15:26;;;;;;;6.65;5.97;;;16.40;99.90;;;;;;4942338;28;94714;-31
2022/07/24 05:17:52;;;;;;;6.13;5.63;;;16.60;99.90;;;;;;4925433;28;94640;-35
2022/07/24 05:20:17;;;;;;;6.75;6.15;;;16.70;99.90;;;;;;4943141;28;93187;-33
2022/07/24 05:22:43;;;;;;;7.43;6.80;;;16.80;99.90;;;;;;4942485;28;94456;-30
2022/07/24 05:25:09;;;;;;;6.05;5.57;;;17.00;99.90;;;;;;4942190;28;96111;-30
2022/07/24 05:27:34;;;;;;;7.25;6.55;;;17.10;99.90;;;;;;4940214;28;94564;-32
2022/07/24 05:30:00;;;;;;;7.45;6.70;;;17.20;99.90;;;;;;4932199;28;93919;-35
2022/07/24 05:32:26;;;;;;;6.70;6.10;;;17.20;99.90;;;;;;4938861;28;93515;-32
2022/07/24 05:34:51;;;;;;;8.95;6.38;;;17.30;99.90;;;;;;4939376;28;94560;-33
2022/07/24 05:37:17;;;;;;;7.18;6.50;;;17.30;99.90;;;;;;4938629;28;93485;-31
2022/07/24 05:39:42;;;;;;;7.45;6.25;;;17.30;99.90;;;;;;4939414;28;94118;-30
2022/07/24 05:42:08;;;;;;;5.90;5.40;;;17.30;99.90;;;;;;4939611;28;94632;-31
2022/07/24 05:44:34;;;;;;;7.75;6.95;;;17.40;99.90;;;;;;4938864;28;94659;-32
2022/07/24 05:46:59;;;;;;;7.40;6.72;;;17.50;99.90;;;;;;4939290;28;94450;-34
2022/07/24 05:49:25;;;;;;;8.00;6.53;;;17.70;99.90;;;;;;4939390;28;93073;-36
2022/07/24 05:51:50;;;;;;;8.43;7.60;;;17.90;99.90;;;;;;4939216;28;94239;-35
2022/07/24 05:54:16;;;;;;;7.30;6.57;;;18.20;99.90;;;;;;4940005;28;94243;-32
2022/07/24 05:56:42;;;;;;;7.30;6.63;;;18.40;99.90;;;;;;4938405;28;93396;-34
2022/07/24 05:59:07;;;;;;;8.63;7.80;;;18.50;99.90;;;;;;4938969;28;94812;-30
2022/07/24 06:01:33;;;;;;;8.70;7.80;;;18.60;99.90;;;;;;4938412;28;94121;-31
2022/07/24 06:03:59;;;;;;;7.80;7.05;;;18.60;99.90;;;;;;4939174;28;94654;-34
2022/07/24 06:06:24;;;;;;;9.68;7.47;;;18.70;99.90;;;;;;4938594;28;94622;-30
2022/07/24 06:08:50;;;;;;;9.55;7.35;;;18.90;99.90;;;;;;4939079;28;93345;-32
2022/07/24 06:11:17;;;;;;;9.73;6.30;;;19.10;99.90;;;;;;4938604;28;92116;-32
2022/07/24 06:13:43;;;;;;;15.52;7.68;;;19.40;99.90;;;;;;4939318;28;94465;-31
2022/07/24 06:16:09;;;;;;;9.98;8.70;;;19.70;99.90;;;;;;4938596;28;94435;-32
2022/07/24 06:18:35;;;;;;;10.38;8.77;;;19.90;99.90;;;;;;4939411;28;91486;-31
2022/07/24 06:21:00;;;;;;;11.07;8.63;;;20.20;99.90;;;;;;4938425;28;93692;-32
2022/07/24 06:23:26;;;;;;;9.38;7.75;;;20.40;99.90;;;;;;4938877;28;95311;-33
2022/07/24 06:25:52;;;;;;;9.73;7.88;;;20.70;99.90;;;;;;4938243;28;95109;-33
2022/07/24 06:28:17;;;;;;;14.60;8.77;;;20.90;99.90;;;;;;4931033;28;93388;-32
2022/07/24 06:30:43;;;;;;;10.55;9.35;;;21.10;99.90;;;;;;4932436;28;92328;-32
2022/07/24 06:33:08;;;;;;;9.80;8.80;;;21.40;99.90;;;;;;4947005;28;94565;-31
2022/07/24 06:35:34;;;;;;;10.50;8.40;;;21.50;99.90;;;;;;4948659;28;94582;-31
2022/07/24 06:38:00;;;;;;;10.05;9.15;;;21.70;99.90;;;;;;4943002;28;93895;-32
2022/07/24 06:40:26;;;;;;;9.70;8.50;;;21.90;99.90;;;;;;4944927;28;93658;-33
2022/07/24 06:42:52;;;;;;;10.38;9.25;;;21.90;99.90;;;;;;4941774;28;95281;-31
2022/07/24 06:45:17;;;;;;;13.60;9.77;;;21.90;99.90;;;;;;4944400;28;94287;-34
2022/07/24 06:47:43;;;;;;;10.40;9.35;;;21.80;99.90;;;;;;4941255;28;93186;-32
2022/07/24 06:50:10;;;;;;;13.88;9.88;;;21.70;99.90;;;;;;4946030;28;94138;-32
2022/07/24 06:52:36;;;;;;;11.15;8.27;;;21.80;99.90;;;;;;4949999;28;94431;-34
2022/07/24 06:55:02;;;;;;;10.82;9.93;;;21.90;99.90;;;;;;4948573;28;94461;-33
2022/07/24 06:57:27;;;;;;;10.60;9.55;;;22.10;99.90;;;;;;4950289;28;92868;-31
2022/07/24 06:59:53;;;;;;;11.95;10.40;;;22.30;99.90;;;;;;4950364;28;92120;-33
2022/07/24 07:02:20;;;;;;;11.18;10.07;;;22.40;99.90;;;;;;4949151;28;95318;-30
2022/07/24 07:04:45;;;;;;;10.35;9.35;;;22.60;99.90;;;;;;4930679;28;94826;-30
2022/07/24 07:07:11;;;;;;;13.38;11.00;;;22.80;99.90;;;;;;4951018;28;92713;-31
2022/07/24 07:09:37;;;;;;;9.90;9.05;;;22.90;99.90;;;;;;4947847;28;93063;-32
2022/07/24 07:12:04;;;;;;;13.00;11.68;;;23.00;99.90;;;;;;4949615;28;94935;-34
2022/07/24 07:14:29;;;;;;;12.63;11.40;;;23.10;99.90;;;;;;4947760;28;94467;-32
2022/07/24 07:16:55;;;;;;;14.80;11.90;;;23.20;99.90;;;;;;4945632;28;92628;-31
2022/07/24 07:19:21;;;;;;;12.65;11.52;;;23.30;99.90;;;;;;4948512;28;93734;-31
2022/07/24 07:21:47;;;;;;;12.05;10.95;;;23.30;99.90;;;;;;4941473;28;93889;-32
2022/07/24 07:24:12;;;;;;;12.75;11.10;;;23.40;99.90;;;;;;4950838;28;93881;-32
2022/07/24 07:26:38;;;;;;;15.35;11.88;;;23.60;99.90;;;;;;4932416;28;93378;-33
2022/07/24 07:29:04;;;;;;;14.23;11.80;;;23.70;99.90;;;;;;4950291;28;92427;-31
2022/07/24 07:31:29;;;;;;;13.80;12.35;;;23.80;99.90;;;;;;4950600;28;94018;-31
2022/07/24 07:33:56;;;;;;;12.93;11.55;;;23.90;99.90;;;;;;4949448;28;93543;-34
2022/07/24 07:36:21;;;;;;;13.30;11.85;;;24.00;99.90;;;;;;4950015;28;92436;-32
2022/07/24 07:38:47;;;;;;;13.18;11.77;;;24.20;99.90;;;;;;4929526;28;93923;-31
2022/07/24 07:41:13;;;;;;;15.93;12.98;;;24.30;99.90;;;;;;4945592;28;94621;-33
2022/07/24 07:43:38;;;;;;;15.32;13.85;;;24.40;99.90;;;;;;4933648;28;94984;-31
2022/07/24 07:46:05;;;;;;;13.82;12.45;;;24.40;99.90;;;;;;4937834;28;92188;-31
2022/07/24 07:48:31;;;;;;;15.63;12.90;;;24.50;99.90;;;;;;4948361;28;92151;-31
2022/07/24 07:50:58;;;;;;;15.15;12.07;;;24.50;99.90;;;;;;4944815;28;93648;-31
2022/07/24 07:53:23;;;;;;;14.40;12.48;;;24.70;99.90;;;;;;4927880;28;94728;-32
2022/07/24 07:55:51;;;;;;;13.70;12.35;;;24.90;99.90;;;;;;4946581;28;91963;-33
2022/07/24 07:58:17;;;;;;;17.02;14.73;;;25.00;99.90;;;;;;4943481;28;94042;-34
2022/07/24 08:00:43;;;;;;;13.68;12.38;;;25.00;99.90;;;;;;4939701;28;94850;-33
2022/07/24 08:03:09;;;;;;;16.05;12.75;;;25.00;99.90;;;;;;4944007;28;94644;-32
2022/07/24 08:05:35;;;;;;;13.55;12.18;;;25.10;99.90;;;;;;4942898;28;92285;-32
2022/07/24 08:08:01;;;;;;;14.23;12.75;;;25.10;99.90;;;;;;4929981;28;93559;-32
2022/07/24 08:10:26;;;;;;;14.93;12.93;;;25.30;99.90;;;;;;4947788;28;94963;-33
2022/07/24 08:12:52;;;;;;;18.17;13.10;;;25.40;99.90;;;;;;4947061;28;94671;-33
2022/07/24 08:15:18;;;;;;;16.02;12.15;;;25.50;99.90;;;;;;4948484;28;93499;-33
2022/07/24 08:17:44;;;;;;;15.45;13.38;;;25.50;99.90;;;;;;4947705;28;92504;-33
2022/07/24 08:20:10;;;;;;;15.40;13.73;;;25.60;99.90;;;;;;4947087;28;93902;-33
2022/07/24 08:22:36;;;;;;;14.82;13.27;;;25.60;99.90;;;;;;4943606;28;94028;-30
2022/07/24 08:25:02;;;;;;;17.50;14.15;;;25.70;99.90;;;;;;4943873;28;93731;-31
2022/07/24 08:27:27;;;;;;;20.92;13.82;;;25.80;99.90;;;;;;4942882;28;93938;-31
2022/07/24 08:29:54;;;;;;;16.33;14.77;;;26.00;99.90;;;;;;4931871;28;95034;-31
2022/07/24 08:32:20;;;;;;;13.40;12.07;;;26.10;99.90;;;;;;4941684;28;95542;-32
2022/07/24 08:34:46;;;;;;;14.45;13.05;;;26.10;99.90;;;;;;4938503;28;94346;-34
2022/07/24 08:37:12;;;;;;;15.60;11.90;;;26.20;99.90;;;;;;4935956;28;93253;-34
2022/07/24 08:39:37;;;;;;;13.90;11.25;;;26.30;99.90;;;;;;4939770;28;94694;-31
2022/07/24 08:42:03;;;;;;;11.32;10.20;;;26.40;99.90;;;;;;4922754;28;94551;-34
2022/07/24 08:44:29;;;;;;;12.27;9.73;;;26.50;99.90;;;;;;4947119;28;92409;-32
2022/07/24 08:46:58;;;;;;;11.20;10.00;;;26.50;99.90;;;;;;4944751;28;92402;-30
2022/07/24 08:49:29;;;;;;;12.05;10.40;;;26.60;99.90;;;;;;4945311;28;94809;-31
2022/07/24 08:51:59;;;;;;;9.75;8.07;;;26.60;99.90;;;;;;4946474;28;93658;-31
2022/07/24 08:54:24;;;;;;;9.35;7.72;;;26.60;99.90;;;;;;4948180;28;93789;-31
2022/07/24 08:56:50;;;;;;;11.60;7.93;;;26.70;99.70;;;;;;4943147;28;92226;-33
2022/07/24 08:59:21;;;;;;;7.80;7.05;;;26.70;99.50;;;;;;4937269;28;95109;-32
2022/07/24 09:01:50;;;;;;;7.50;6.50;;;26.70;99.90;;;;;;4931155;28;94501;-30
2022/07/24 09:04:34;;;;;;;6.55;6.00;;;26.80;98.90;;;;;;4948066;28;93113;-32
2022/07/24 09:07:02;;;;;;;7.05;6.35;;;26.90;98.30;;;;;;4948360;28;92188;-32
2022/07/24 09:09:28;;;;;;;;;;;26.90;96.60;;;;;;4950458;28;93161;-32
2022/07/24 09:12:15;;;;;;;7.35;6.47;;;26.80;99.10;;;;;;4950955;28;93506;-32
2022/07/24 09:14:43;;;;;;;6.15;5.13;;;26.80;95.70;;;;;;4951310;28;93079;-33
2022/07/24 09:17:12;;;;;;;7.03;4.53;;;26.70;94.00;;;;;;4950011;28;93137;-31
2022/07/24 09:19:51;;;;;;;4.35;3.95;;;26.60;94.10;;;;;;4950979;28;94599;-34
2022/07/24 09:22:35;;;;;;;5.13;4.70;;;26.40;95.00;;;;;;4918167;28;95083;-34
2022/07/24 09:25:03;;;;;;;4.82;4.18;;;26.30;97.90;;;;;;4940590;28;93842;-33
2022/07/24 09:27:29;;;;;;;6.13;5.03;;;26.50;99.40;;;;;;4932666;28;92640;-32
2022/07/24 09:29:54;;;;;;;9.65;4.85;;;26.60;95.00;;;;;;4942217;28;94338;-33
2022/07/24 09:32:24;;;;;;;5.30;3.72;;;26.60;93.60;;;;;;4930026;28;94525;-33
2022/07/24 09:34:52;;;;;;;4.32;3.92;;;26.70;96.60;;;;;;4949166;28;91786;-34
2022/07/24 09:37:18;;;;;;;4.78;4.22;;;26.90;93.90;;;;;;4948475;28;92865;-32
2022/07/24 09:39:44;;;;;;;3.47;3.17;;;27.20;94.40;;;;;;4949742;28;94530;-32
2022/07/24 09:42:10;;;;;;;4.60;4.18;;;27.30;85.90;;;;;;4948643;28;94843;-34
2022/07/24 09:44:36;;;;;;;3.63;3.30;;;27.20;87.00;;;;;;4933389;28;92935;-32
2022/07/24 09:47:08;;;;;;;3.58;3.28;;;27.00;85.20;;;;;;4930827;28;92710;-36
2022/07/24 09:49:35;;;;;;;4.68;3.53;;;26.80;89.80;;;;;;4924007;28;96500;-33
2022/07/24 09:52:18;;;;;;;4.05;3.53;;;26.70;88.80;;;;;;4944033;28;94606;-32
2022/07/24 09:54:51;;;;;;;3.70;3.38;;;26.70;91.30;;;;;;4949042;28;92317;-32
2022/07/24 09:57:22;;;;;;;3.50;3.20;;;26.90;92.70;;;;;;4950504;28;93201;-34
2022/07/24 09:59:51;;;;;;;10.20;3.80;;;27.10;91.80;;;;;;4949924;28;93946;-34
2022/07/24 10:02:19;;;;;;;3.65;3.35;;;27.30;90.90;;;;;;4942230;28;93953;-32
2022/07/24 10:04:45;;;;;;;3.78;3.50;;;27.40;86.90;;;;;;4925210;28;93405;-32
2022/07/24 10:07:13;;;;;;;6.88;4.35;;;27.40;87.20;;;;;;4945796;28;94630;-34
2022/07/24 10:09:42;;;;;;;5.07;3.50;;;27.40;85.30;;;;;;4945225;28;95305;-32
2022/07/24 10:12:14;;;;;;;4.28;3.90;;;27.60;83.10;;;;;;4947338;28;94720;-33
2022/07/24 10:14:41;;;;;;;3.55;3.08;;;27.50;86.10;;;;;;4948213;28;93398;-32
2022/07/24 10:17:08;;;;;;;4.05;3.75;;;27.60;83.50;;;;;;4944551;28;93027;-33
2022/07/24 10:19:54;;;;;;;5.47;3.38;;;27.60;81.10;;;;;;4947721;28;94098;-32
2022/07/24 10:22:22;;;;;;;3.80;2.78;;;27.60;80.30;;;;;;4949958;28;94806;-33
2022/07/24 10:25:05;;;;;;;3.60;3.30;;;27.60;83.50;;;;;;4950685;28;91899;-32
2022/07/24 10:27:32;;;;;;;3.72;3.42;;;27.70;82.80;;;;;;4947435;28;92530;-34
2022/07/24 10:30:04;;;;;;;3.97;3.58;;;27.90;80.40;;;;;;4937404;28;94331;-31
2022/07/24 10:32:31;;;;;;;3.50;3.22;;;27.90;81.40;;;;;;4948261;28;94419;-32
2022/07/24 10:35:16;;;;;;;3.70;3.40;;;27.90;75.00;;;;;;4949816;28;92208;-31
2022/07/24 10:37:53;;;;;;;3.80;3.50;;;27.70;77.70;;;;;;4949533;28;93423;-32
2022/07/24 10:40:44;;;;;;;3.25;3.00;;;27.70;76.40;;;;;;4949730;28;95102;-33
2022/07/24 10:43:13;;;;;;;3.53;3.17;;;27.60;79.40;;;;;;4949423;28;94235;-33
2022/07/24 10:45:43;;;;;;;5.22;4.00;;;27.60;80.00;;;;;;4950644;28;93778;-34
2022/07/24 10:48:30;;;;;;;4.30;3.63;;;27.70;80.80;;;;;;4949699;28;93081;-35
2022/07/24 10:51:07;;;;;;;3.97;3.67;;;27.70;81.60;;;;;;4949910;28;94119;-31
2022/07/24 10:53:38;;;;;;;3.97;3.58;;;27.70;84.80;;;;;;4939874;28;93849;-33
2022/07/24 10:56:24;;;;;;;5.45;3.25;;;27.80;84.80;;;;;;4930580;28;93626;-34
2022/07/24 10:59:01;;;;;;;3.80;3.42;;;27.80;80.70;;;;;;4937959;28;95055;-35
2022/07/24 11:01:35;;;;;;;4.20;3.03;;;27.90;78.40;;;;;;4934999;28;92948;-32
2022/07/24 11:04:23;;;;;;;3.67;3.38;;;27.90;74.30;;;;;;4934920;28;94672;-35
2022/07/24 11:06:56;;;;;;;3.47;3.20;;;27.80;73.50;;;;;;4935489;28;93197;-32
2022/07/24 11:09:26;;;;;;;3.00;2.80;;;27.60;73.80;;;;;;4934738;28;92369;-31
2022/07/24 11:11:51;;;;;;;3.88;3.47;;;27.50;77.10;;;;;;4934865;28;95293;-31
2022/07/24 11:14:46;;;;;;;3.35;2.70;;;27.60;78.70;;;;;;4935022;28;94345;-32
2022/07/24 11:17:35;;;;;;;3.05;2.75;;;27.70;77.80;;;;;;4935913;28;93499;-34
2022/07/24 11:20:03;;;;;;;3.67;2.80;;;27.70;75.10;;;;;;4930350;28;93860;-35
2022/07/24 11:22:58;;;;;;;4.18;3.28;;;27.60;76.50;;;;;;4930301;28;94431;-34
2022/07/24 11:25:30;;;;;;;4.05;3.65;;;27.50;80.50;;;;;;4926302;28;96089;-33
2022/07/24 11:27:58;;;;;;;2.90;2.70;;;27.50;79.40;;;;;;4932331;28;94247;-32
2022/07/24 11:30:27;;;;;;;3.05;2.85;;;27.50;77.20;;;;;;4928752;28;93463;-33
2022/07/24 11:32:52;;;;;;;3.70;3.40;;;27.40;75.40;;;;;;4940507;28;94973;-35
2022/07/24 11:35:26;;;;;;;3.35;2.78;;;27.40;74.30;;;;;;4946676;28;94734;-33
2022/07/24 11:37:53;;;;;;;3.50;3.22;;;27.40;79.90;;;;;;4947104;28;94157;-32
2022/07/24 11:40:21;;;;;;;2.85;2.65;;;27.60;80.50;;;;;;4948562;28;92751;-34
2022/07/24 11:42:57;;;;;;;4.80;3.97;;;27.80;81.30;;;;;;4945121;28;94065;-32
2022/07/24 11:45:23;;;;;;;3.50;3.20;;;28.00;79.70;;;;;;4948086;28;93737;-34
2022/07/24 11:47:48;;;;;;;3.05;2.85;;;28.10;73.90;;;;;;4949394;28;92196;-33
2022/07/24 11:50:14;;;;;;;3.08;2.88;;;28.10;73.80;;;;;;4947777;28;94424;-33
2022/07/24 11:52:41;;;;;;;3.13;2.67;;;28.00;75.40;;;;;;4948784;28;94417;-32
2022/07/24 11:55:13;;;;;;;3.07;2.80;;;28.00;73.40;;;;;;4948766;28;94634;-33
2022/07/24 11:57:42;;;;;;;2.92;2.65;;;28.00;73.20;;;;;;4948169;28;92186;-33
2022/07/24 12:00:11;;;;;;;2.67;2.47;;;27.90;72.30;;;;;;4948100;28;92217;-35
2022/07/24 12:02:42;;;;;;;3.30;3.03;;;27.90;72.50;;;;;;4948684;28;94549;-32
2022/07/24 12:05:08;;;;;;;2.78;2.58;;;27.90;73.70;;;;;;4948507;28;94405;-31
2022/07/24 12:07:35;;;;;;;3.45;3.15;;;27.90;75.20;;;;;;4948748;28;91414;-32
2022/07/24 12:10:02;;;;;;;3.85;3.40;;;28.00;75.60;;;;;;4947863;28;92705;-33
2022/07/24 12:12:35;;;;;;;6.00;3.40;;;28.10;72.40;;;;;;4978927;22;94763;-33
2022/07/24 12:15:11;;;;;;;3.10;2.85;;;28.10;72.00;;;;;;4947899;28;95933;-31
2022/07/24 12:17:55;;;;;;;2.80;2.60;;;28.20;71.50;;;;;;4948855;28;93030;-30
2022/07/24 12:20:22;;;;;;;3.60;3.40;;;28.10;72.90;;;;;;4948345;28;93538;-33
2022/07/24 12:22:48;;;;;;;3.08;2.83;;;28.10;73.20;;;;;;4948174;28;95365;-32
2022/07/24 12:25:14;;;;;;;3.15;2.80;;;28.20;72.70;;;;;;4948138;28;95005;-32
2022/07/24 12:27:43;;;;;;;3.85;3.55;;;28.20;72.50;;;;;;4945724;28;92282;-31
2022/07/24 12:30:17;;;;;;;4.28;3.88;;;28.20;73.10;;;;;;4937365;28;93131;-34
2022/07/24 12:33:02;;;;;;;3.72;3.42;;;28.20;69.30;;;;;;4947958;28;93618;-34
2022/07/24 12:35:30;;;;;;;3.80;2.80;;;28.20;71.70;;;;;;4948703;28;94792;-33
2022/07/24 12:37:57;;;;;;;3.65;3.28;;;28.20;73.70;;;;;;4947414;28;92179;-32
2022/07/24 12:40:27;;;;;;;9.67;3.47;;;28.20;72.50;;;;;;4947116;28;94600;-33
2022/07/24 12:43:06;;;;;;;3.63;3.33;;;28.30;71.10;;;;;;4951763;28;94774;-32
2022/07/24 12:45:32;;;;;;;3.38;3.00;;;28.40;69.60;;;;;;4951486;28;93529;-33